Time;durP1;ratioP1;P1;durP2;ratioP2;P2;SDS_P1;SDS_P2;PMS_P1;PMS_P2;Temp;Humidity;BMP_temperature;BMP_pressure;BME280_temperature;BME280_humidity;BME280_pressure;Samples;Min_cycle;Max_cycle;Signal;HPM_P1;HPM_P2
2021/10/21 00:02:22;;;;;;;14.60;10.70;;;;;;;13.35;49.94;101075.25;117413;1185;23466;-57
2021/10/21 00:04:52;;;;;;;13.50;10.50;;;;;;;13.34;50.01;101069.27;117434;1184;21863;-56
2021/10/21 00:07:21;;;;;;;14.10;10.80;;;;;;;13.32;49.97;101068.77;117453;1185;21990;-59
2021/10/21 00:09:50;;;;;;;11.70;9.70;;;;;;;13.30;49.98;101065.98;117360;1185;21923;-55
2021/10/21 00:12:18;;;;;;;12.60;9.70;;;;;;;13.29;49.84;101067.05;117367;1185;21895;-59
2021/10/21 00:14:47;;;;;;;15.30;9.90;;;;;;;13.26;50.05;101066.20;117366;1182;23466;-55
2021/10/21 00:17:15;;;;;;;14.10;9.40;;;;;;;13.24;50.07;101063.95;117409;1176;21858;-56
2021/10/21 00:19:44;;;;;;;11.80;9.20;;;;;;;13.22;49.96;101070.14;117362;1183;23547;-59
2021/10/21 00:22:12;;;;;;;13.60;10.30;;;;;;;13.19;50.04;101063.99;117344;1179;23469;-55
2021/10/21 00:24:41;;;;;;;15.20;9.80;;;;;;;13.17;50.07;101059.98;117366;1183;23472;-59
2021/10/21 00:27:09;;;;;;;15.60;10.20;;;;;;;13.17;50.11;101061.57;117358;1185;21863;-57
2021/10/21 00:29:38;;;;;;;13.80;10.10;;;;;;;13.14;50.06;101057.02;117429;1185;23469;-57
2021/10/21 00:32:07;;;;;;;12.90;9.60;;;;;;;13.13;50.09;101057.91;117431;1183;21855;-56
2021/10/21 00:34:35;;;;;;;12.20;9.70;;;;;;;13.12;50.11;101058.63;117395;1182;23466;-55
2021/10/21 00:37:04;;;;;;;11.80;9.40;;;;;;;13.10;50.05;101051.41;117369;1185;23464;-55
2021/10/21 00:39:32;;;;;;;14.30;10.50;;;;;;;13.09;49.96;101047.90;117444;1181;21858;-59
2021/10/21 00:42:01;;;;;;;12.50;9.70;;;;;;;13.07;50.00;101044.94;117391;1182;23442;-56
2021/10/21 00:44:29;;;;;;;13.70;10.10;;;;;;;13.04;50.07;101041.08;117423;1185;21848;-59
2021/10/21 00:46:58;;;;;;;11.80;9.10;;;;;;;13.03;50.06;101039.35;117419;1182;24163;-59
2021/10/21 00:49:27;;;;;;;15.20;9.90;;;;;;;13.03;49.97;101033.36;117425;1182;21857;-56
2021/10/21 00:51:55;;;;;;;13.80;9.90;;;;;;;13.02;50.07;101033.55;117454;1184;21837;-55
2021/10/21 00:54:23;;;;;;;14.10;9.50;;;;;;;13.00;50.02;101033.58;117444;1185;22641;-56
2021/10/21 00:56:52;;;;;;;12.60;9.60;;;;;;;12.99;50.05;101031.65;117397;1186;22861;-55
2021/10/21 00:59:21;;;;;;;12.90;9.70;;;;;;;12.97;50.18;101024.63;117337;1182;22635;-59
2021/10/21 01:01:50;;;;;;;11.90;9.20;;;;;;;12.97;50.18;101021.11;117441;1185;21845;-59
2021/10/21 01:04:18;;;;;;;13.40;8.90;;;;;;;12.95;50.21;101014.25;117443;1182;21851;-56
2021/10/21 01:06:47;;;;;;;12.00;9.50;;;;;;;12.93;50.01;101017.44;117421;1185;23458;-56
2021/10/21 01:09:15;;;;;;;11.10;8.30;;;;;;;12.91;50.14;101015.00;117436;1182;21857;-59
2021/10/21 01:11:44;;;;;;;12.50;8.80;;;;;;;12.88;50.11;101012.22;117347;1186;22759;-55
2021/10/21 01:14:13;;;;;;;11.70;9.20;;;;;;;12.87;50.13;101011.88;117381;1184;21855;-59
2021/10/21 01:16:42;;;;;;;11.90;8.90;;;;;;;12.87;50.14;101015.40;117384;1184;23442;-59
2021/10/21 01:19:18;;;;;;;11.00;8.70;;;;;;;12.90;50.14;101016.25;117463;1185;21885;-59
2021/10/21 01:21:54;;;;;;;13.30;9.00;;;;;;;12.86;50.28;101015.41;117353;1185;23442;-59
2021/10/21 01:24:26;;;;;;;11.50;9.20;;;;;;;12.84;50.24;101012.63;117373;1185;21855;-55
2021/10/21 01:26:55;;;;;;;11.80;8.90;;;;;;;12.83;50.21;101011.40;117333;1186;21845;-56
2021/10/21 01:29:24;;;;;;;12.50;8.90;;;;;;;12.84;50.28;101011.91;117398;1185;23469;-55
2021/10/21 01:31:53;;;;;;;11.90;9.00;;;;;;;12.84;50.22;101007.68;117456;1182;22648;-55
2021/10/21 01:34:21;;;;;;;11.90;9.20;;;;;;;12.84;50.29;101008.38;117388;1183;23442;-59
2021/10/21 01:36:52;;;;;;;10.60;8.30;;;;;;;12.85;50.23;101003.27;117325;1182;21965;-56
2021/10/21 01:39:21;;;;;;;13.30;9.00;;;;;;;12.87;50.21;101002.54;117374;1182;22913;-56
2021/10/21 01:41:50;;;;;;;12.50;8.50;;;;;;;12.88;50.37;101003.23;117397;1182;23462;-59
2021/10/21 01:44:18;;;;;;;10.90;8.90;;;;;;;12.89;50.29;101003.04;117372;1186;21848;-58
2021/10/21 01:46:46;;;;;;;12.20;8.60;;;;;;;12.89;50.46;101000.94;117334;1185;21854;-59
2021/10/21 01:49:15;;;;;;;13.20;9.30;;;;;;;12.88;50.41;101001.47;117372;1182;21816;-56
2021/10/21 01:51:49;;;;;;;11.70;8.70;;;;;;;12.90;50.37;101004.09;117347;1185;23535;-56
2021/10/21 01:54:18;;;;;;;11.90;8.70;;;;;;;12.91;50.33;101004.60;117402;1184;23442;-59
2021/10/21 01:56:46;;;;;;;14.10;8.90;;;;;;;12.90;50.37;101001.44;117336;1184;21853;-55
2021/10/21 01:59:15;;;;;;;11.10;8.60;;;;;;;12.91;50.50;101000.03;117369;1183;23445;-55
2021/10/21 02:01:43;;;;;;;12.40;9.00;;;;;;;12.91;50.45;100998.80;117384;1185;23479;-55
2021/10/21 02:04:12;;;;;;;11.60;9.00;;;;;;;12.91;50.51;100998.09;117413;1183;23462;-56
2021/10/21 02:06:40;;;;;;;12.10;9.20;;;;;;;12.90;50.53;100992.82;117305;1186;21858;-56
2021/10/21 02:09:09;;;;;;;11.90;8.40;;;;;;;12.90;50.51;100992.29;117348;1189;23439;-56
2021/10/21 02:11:37;;;;;;;10.50;8.80;;;;;;;12.90;50.50;100985.95;117330;1184;22912;-59
2021/10/21 02:14:05;;;;;;;13.60;8.50;;;;;;;12.91;50.36;100986.47;117279;1183;23439;-60
2021/10/21 02:16:33;;;;;;;10.50;8.70;;;;;;;12.90;50.46;100984.36;117393;1176;21855;-58
2021/10/21 02:19:02;;;;;;;12.20;8.50;;;;;;;12.90;50.58;100979.61;117382;1184;23455;-55
2021/10/21 02:21:30;;;;;;;12.80;8.60;;;;;;;12.92;50.40;100979.77;117429;1184;24301;-56
2021/10/21 02:24:00;;;;;;;11.40;8.40;;;;;;;12.91;50.48;100981.17;117388;1185;24837;-55
2021/10/21 02:26:29;;;;;;;11.40;8.10;;;;;;;12.91;50.50;100985.23;117412;1185;24705;-57
2021/10/21 02:28:58;;;;;;;11.50;7.80;;;;;;;12.92;50.68;100986.98;117436;1185;23548;-56
2021/10/21 02:31:26;;;;;;;13.20;8.60;;;;;;;12.92;50.51;100991.20;117373;1185;23433;-55
2021/10/21 02:33:55;;;;;;;11.20;8.40;;;;;;;12.93;50.67;100992.45;117357;1185;23465;-56
2021/10/21 02:36:23;;;;;;;13.40;8.50;;;;;;;12.92;50.59;100992.08;117362;1188;24140;-58
2021/10/21 02:38:51;;;;;;;11.30;8.90;;;;;;;12.93;50.55;100989.25;117404;1182;23706;-58
2021/10/21 02:41:20;;;;;;;13.10;8.80;;;;;;;12.95;50.73;100987.65;117375;1183;24202;-55
2021/10/21 02:43:48;;;;;;;11.00;8.10;;;;;;;12.95;50.58;100986.77;117226;1185;23570;-59
2021/10/21 02:46:17;;;;;;;12.60;8.70;;;;;;;12.96;50.67;100984.65;117361;1182;21855;-56
2021/10/21 02:48:45;;;;;;;11.20;7.60;;;;;;;12.97;50.65;100980.95;117469;1184;23468;-56
2021/10/21 02:51:13;;;;;;;11.40;8.30;;;;;;;12.98;50.75;100984.63;117425;1182;23477;-58
2021/10/21 02:53:42;;;;;;;10.80;8.30;;;;;;;12.98;50.79;100981.09;117440;1186;23442;-59
2021/10/21 02:56:10;;;;;;;9.80;7.90;;;;;;;13.00;50.77;100976.67;117430;1182;21854;-56
2021/10/21 02:58:39;;;;;;;10.60;8.10;;;;;;;13.02;50.79;100973.48;117436;1183;24163;-56
2021/10/21 03:01:08;;;;;;;12.30;7.40;;;;;;;13.04;50.60;100969.57;117570;1185;21861;-59
2021/10/21 03:03:36;;;;;;;11.20;8.10;;;;;;;13.05;50.69;100967.96;117540;1186;22622;-57
2021/10/21 03:06:04;;;;;;;10.60;7.70;;;;;;;13.06;50.71;100961.44;117459;1179;21842;-59
2021/10/21 03:08:34;;;;;;;9.50;7.90;;;;;;;13.06;50.69;100959.86;117486;1184;23466;-56
2021/10/21 03:11:08;;;;;;;9.40;7.60;;;;;;;13.06;50.70;100958.78;117471;1180;23482;-56
2021/10/21 03:13:37;;;;;;;10.60;7.50;;;;;;;13.07;50.70;100954.90;117565;1183;23531;-57
2021/10/21 03:16:05;;;;;;;10.40;8.10;;;;;;;13.07;50.69;100959.13;117521;1186;23458;-60
2021/10/21 03:18:34;;;;;;;11.70;8.00;;;;;;;13.07;50.65;100955.44;117446;1186;24158;-59
2021/10/21 03:21:02;;;;;;;11.00;8.50;;;;;;;13.07;50.69;100955.78;117377;1183;23446;-60
2021/10/21 03:23:31;;;;;;;10.30;7.60;;;;;;;13.08;50.81;100965.29;117462;1185;23361;-57
2021/10/21 03:26:00;;;;;;;10.20;7.20;;;;;;;13.09;50.69;100964.20;117575;1185;21855;-60
2021/10/21 03:28:28;;;;;;;10.00;7.60;;;;;;;13.11;50.86;100960.67;117540;1185;23593;-60
2021/10/21 03:30:57;;;;;;;9.70;7.40;;;;;;;13.13;50.77;100957.83;117555;1183;23566;-60
2021/10/21 03:33:25;;;;;;;13.80;8.50;;;;;;;13.11;50.68;100958.02;117462;1183;21898;-57
2021/10/21 03:35:53;;;;;;;12.10;6.90;;;;;;;13.11;50.71;100956.44;117579;1183;23438;-57
2021/10/21 03:38:21;;;;;;;16.10;7.40;;;;;;;13.10;50.81;100952.21;117540;1184;21848;-57
2021/10/21 03:40:51;;;;;;;11.10;7.20;;;;;;;13.08;50.65;100949.23;117504;1182;23442;-60
2021/10/21 03:43:20;;;;;;;9.60;7.40;;;;;;;13.09;50.76;100945.35;117585;1183;23442;-60
2021/10/21 03:45:48;;;;;;;14.50;7.50;;;;;;;13.10;50.81;100937.60;117492;1186;21850;-61
2021/10/21 03:48:17;;;;;;;18.70;11.10;;;;;;;13.11;50.86;100935.83;117410;1184;22823;-60
2021/10/21 03:50:45;;;;;;;14.90;9.10;;;;;;;13.10;50.74;100929.84;117444;1186;24137;-57
2021/10/21 03:53:14;;;;;;;10.50;8.10;;;;;;;13.10;50.73;100924.91;117373;1184;21865;-57
2021/10/21 03:55:42;;;;;;;11.70;9.00;;;;;;;13.10;50.90;100916.30;117396;1185;23555;-58
2021/10/21 03:58:11;;;;;;;12.90;8.20;;;;;;;13.12;50.87;100917.49;117345;1186;21855;-61
2021/10/21 04:00:41;;;;;;;12.10;9.30;;;;;;;13.12;50.79;100917.84;117497;1185;23439;-61
2021/10/21 04:03:10;;;;;;;9.70;7.80;;;;;;;13.14;50.89;100907.23;117548;1183;23445;-61
2021/10/21 04:05:40;;;;;;;13.70;8.70;;;;;;;13.17;50.88;100906.33;117408;1186;24294;-59
2021/10/21 04:08:08;;;;;;;12.70;7.80;;;;;;;13.20;50.93;100898.88;117660;1185;23462;-58
2021/10/21 04:10:37;;;;;;;14.40;10.50;;;;;;;13.21;50.91;100893.94;117485;1183;24152;-59
2021/10/21 04:13:05;;;;;;;12.20;9.00;;;;;;;13.22;50.84;100889.33;117482;1186;21861;-61
2021/10/21 04:15:33;;;;;;;12.70;8.60;;;;;;;13.24;50.89;100889.31;117528;1186;23466;-58
2021/10/21 04:18:14;;;;;;;11.90;8.10;;;;;;;13.25;50.92;100889.82;117448;1182;24180;-58
2021/10/21 04:20:43;;;;;;;11.70;7.80;;;;;;;13.26;51.00;100891.04;117530;1182;23442;-59
2021/10/21 04:23:11;;;;;;;11.10;8.10;;;;;;;13.28;51.05;100892.94;117463;1186;22988;-58
2021/10/21 04:25:39;;;;;;;14.70;8.30;;;;;;;13.30;50.96;100893.26;117421;1185;22916;-59
2021/10/21 04:28:07;;;;;;;13.50;7.90;;;;;;;13.32;50.88;100888.81;117438;1183;22620;-58
2021/10/21 04:30:36;;;;;;;11.70;8.00;;;;;;;13.33;51.01;100886.34;117550;1186;23475;-59
2021/10/21 04:33:05;;;;;;;11.30;8.60;;;;;;;13.35;51.06;100886.31;117476;1185;22922;-59
2021/10/21 04:35:33;;;;;;;12.10;8.10;;;;;;;13.38;50.98;100885.21;117490;1183;24140;-59
2021/10/21 04:38:02;;;;;;;9.40;7.70;;;;;;;13.39;50.99;100885.19;117422;1176;22921;-59
2021/10/21 04:40:31;;;;;;;12.00;7.90;;;;;;;13.40;51.01;100888.71;117446;1185;22903;-60
2021/10/21 04:42:59;;;;;;;13.80;10.40;;;;;;;13.36;51.22;100888.41;117418;1184;21855;-57
2021/10/21 04:45:29;;;;;;;11.00;8.30;;;;;;;13.37;51.22;100890.33;117358;1182;21985;-60
2021/10/21 04:47:57;;;;;;;12.70;9.10;;;;;;;13.40;51.32;100888.71;117373;1186;22912;-60
2021/10/21 04:50:25;;;;;;;12.80;8.60;;;;;;;13.44;51.16;100890.10;117389;1182;21855;-60
2021/10/21 04:52:54;;;;;;;11.80;8.50;;;;;;;13.46;51.24;100891.30;117522;1186;21997;-60
2021/10/21 04:55:23;;;;;;;11.20;7.90;;;;;;;13.48;51.23;100891.07;117376;1186;23469;-55
2021/10/21 04:57:52;;;;;;;16.10;9.90;;;;;;;13.52;51.24;100892.06;117485;1185;23802;-60
2021/10/21 05:00:20;;;;;;;12.70;8.60;;;;;;;13.57;51.36;100885.81;117495;1187;21855;-57
2021/10/21 05:02:48;;;;;;;15.10;9.50;;;;;;;13.60;51.47;100884.02;117578;1185;21842;-59
2021/10/21 05:05:17;;;;;;;13.50;8.60;;;;;;;13.64;51.46;100879.52;117519;1183;24146;-59
2021/10/21 05:07:45;;;;;;;12.60;8.40;;;;;;;13.70;51.37;100874.84;117508;1186;21845;-60
2021/10/21 05:10:22;;;;;;;12.10;7.60;;;;;;;13.75;51.41;100869.64;117499;1179;24160;-57
2021/10/21 05:13:01;;;;;;;9.60;7.50;;;;;;;13.82;51.46;100871.11;117391;1186;24338;-57
2021/10/21 05:15:30;;;;;;;9.90;6.80;;;;;;;13.87;51.47;100861.33;117457;1186;24702;-57
2021/10/21 05:17:58;;;;;;;10.40;7.30;;;;;;;13.91;51.53;100858.40;117339;1185;21846;-58
2021/10/21 05:20:26;;;;;;;12.00;7.70;;;;;;;13.97;51.59;100849.83;117340;1182;23999;-60
2021/10/21 05:22:54;;;;;;;9.70;7.60;;;;;;;14.02;51.66;100848.67;117342;1185;23002;-61
2021/10/21 05:25:23;;;;;;;12.00;8.40;;;;;;;14.10;51.75;100844.30;117416;1186;24162;-57
2021/10/21 05:27:51;;;;;;;9.90;7.70;;;;;;;14.19;51.62;100842.02;117375;1183;21867;-61
2021/10/21 05:30:19;;;;;;;11.20;7.40;;;;;;;14.24;51.72;100845.09;117402;1186;21864;-59
2021/10/21 05:32:48;;;;;;;11.40;7.00;;;;;;;14.34;51.67;100845.23;117644;1182;21853;-60
2021/10/21 05:35:16;;;;;;;8.90;6.70;;;;;;;14.44;51.54;100843.62;117463;1183;23458;-61
2021/10/21 05:37:45;;;;;;;10.90;6.70;;;;;;;14.52;51.61;100854.58;117473;1186;21858;-62
2021/10/21 05:40:14;;;;;;;10.70;6.80;;;;;;;14.58;51.72;100852.14;117609;1186;22003;-62
2021/10/21 05:42:42;;;;;;;11.00;6.10;;;;;;;14.65;51.71;100852.52;117537;1183;21864;-61
2021/10/21 05:45:10;;;;;;;8.60;6.10;;;;;;;14.71;51.65;100855.06;117425;1184;21864;-61
2021/10/21 05:47:41;;;;;;;8.70;6.00;;;;;;;14.77;51.70;100851.96;117557;1183;23442;-60
2021/10/21 05:50:10;;;;;;;10.00;6.20;;;;;;;14.87;51.76;100852.59;117569;1183;22325;-60
2021/10/21 05:52:38;;;;;;;9.40;6.30;;;;;;;14.95;51.71;100854.92;117397;1186;22625;-62
2021/10/21 05:55:07;;;;;;;8.70;6.30;;;;;;;15.00;51.70;100849.66;117415;1183;21855;-63
2021/10/21 05:57:35;;;;;;;8.20;6.00;;;;;;;15.07;51.76;100853.55;117517;1185;22090;-61
2021/10/21 06:00:05;;;;;;;10.30;6.10;;;;;;;15.11;51.73;100848.88;117478;1183;23436;-61
2021/10/21 06:02:34;;;;;;;10.00;5.90;;;;;;;15.18;51.86;100844.84;117545;1182;23330;-62
2021/10/21 06:05:04;;;;;;;8.00;6.20;;;;;;;15.24;51.74;100840.45;117535;1182;23551;-62
2021/10/21 06:07:32;;;;;;;8.30;5.20;;;;;;;15.30;51.72;100828.09;117511;1183;21905;-63
2021/10/21 06:10:20;;;;;;;8.20;5.70;;;;;;;15.38;51.83;100830.38;117580;1185;23451;-60
2021/10/21 06:12:50;;;;;;;9.00;5.70;;;;;;;15.44;51.79;100825.83;117393;1181;23477;-62
2021/10/21 06:15:19;;;;;;;12.10;6.10;;;;;;;15.49;51.85;100822.67;117425;1185;23465;-62
2021/10/21 06:17:48;;;;;;;7.70;5.30;;;;;;;15.54;51.91;100823.45;117403;1185;23445;-62
2021/10/21 06:20:16;;;;;;;7.90;5.50;;;;;;;15.60;51.80;100829.83;117399;1185;21861;-63
2021/10/21 06:22:46;;;;;;;12.60;5.90;;;;;;;15.66;51.86;100826.13;117317;1183;23468;-62
2021/10/21 06:25:14;;;;;;;9.40;5.30;;;;;;;15.73;51.89;100821.70;117344;1185;22834;-60
2021/10/21 06:27:42;;;;;;;6.80;4.40;;;;;;;15.78;51.88;100815.55;117411;1185;21975;-61
2021/10/21 06:30:10;;;;;;;7.80;5.10;;;;;;;15.85;51.99;100816.10;117493;1184;21854;-60
2021/10/21 06:32:39;;;;;;;7.80;5.30;;;;;;;15.90;51.89;100815.77;117472;1182;21859;-62
2021/10/21 06:35:07;;;;;;;10.00;4.60;;;;;;;15.97;51.95;100809.75;117572;1184;21892;-65
2021/10/21 06:37:35;;;;;;;6.60;4.80;;;;;;;16.03;51.93;100815.78;117552;1176;21845;-64
2021/10/21 06:40:05;;;;;;;11.20;5.20;;;;;;;16.09;51.89;100812.79;117444;1186;24161;-61
2021/10/21 06:42:36;;;;;;;8.70;4.50;;;;;;;16.14;51.87;100810.88;117387;1184;23439;-61
2021/10/21 06:45:05;;;;;;;8.80;4.70;;;;;;;16.20;51.95;100809.46;117375;1186;21892;-61
2021/10/21 06:47:34;;;;;;;9.50;5.10;;;;;;;16.27;51.93;100804.87;117438;1185;22904;-63
2021/10/21 06:50:03;;;;;;;8.80;4.60;;;;;;;16.32;51.94;100811.78;117480;1185;21848;-64
2021/10/21 06:52:31;;;;;;;13.00;4.50;;;;;;;16.37;52.02;100811.98;117404;1185;23455;-64
2021/10/21 06:54:59;;;;;;;8.40;4.40;;;;;;;16.44;52.00;100816.20;117315;1186;21867;-60
2021/10/21 06:57:27;;;;;;;16.50;4.40;;;;;;;16.53;52.02;100814.19;117396;1184;23445;-60
2021/10/21 06:59:56;;;;;;;10.10;4.60;;;;;;;16.60;52.04;100812.73;117337;1186;23443;-64
2021/10/21 07:02:28;;;;;;;12.10;4.40;;;;;;;16.67;51.95;100820.66;117394;1184;23469;-66
2021/10/21 07:04:57;;;;;;;8.30;4.60;;;;;;;16.74;51.97;100823.81;117414;1182;22622;-61
2021/10/21 07:07:29;;;;;;;9.40;3.70;;;;;;;16.84;51.89;100824.02;117333;1186;21891;-67
2021/10/21 07:10:15;;;;;;;6.10;4.00;;;;;;;16.97;51.89;100825.96;117380;1179;23465;-61
2021/10/21 07:13:04;;;;;;;10.50;4.00;;;;;;;17.02;52.07;100823.16;117412;1186;21948;-66
2021/10/21 07:15:50;;;;;;;11.70;5.10;;;;;;;17.09;51.99;100824.52;117441;1188;23529;-66
2021/10/21 07:18:19;;;;;;;7.50;4.00;;;;;;;17.18;51.96;100817.12;117362;1185;21853;-60
2021/10/21 07:20:47;;;;;;;10.50;4.40;;;;;;;17.28;52.00;100826.58;117420;1185;23464;-60
2021/10/21 07:23:15;;;;;;;6.10;3.70;;;;;;;17.34;51.95;100814.33;117329;1182;21848;-63
2021/10/21 07:25:44;;;;;;;9.10;4.10;;;;;;;17.40;52.00;100812.16;117371;1183;23477;-61
2021/10/21 07:28:12;;;;;;;7.10;4.10;;;;;;;17.46;51.98;100804.14;117412;1186;21899;-65
2021/10/21 07:30:41;;;;;;;6.40;3.70;;;;;;;17.57;52.09;100820.64;117318;1183;23468;-63
2021/10/21 07:33:09;;;;;;;7.30;4.30;;;;;;;17.65;51.98;100815.92;117345;1180;21857;-65
2021/10/21 07:35:37;;;;;;;6.50;3.70;;;;;;;17.72;52.01;100814.42;117359;1183;24155;-65
2021/10/21 07:38:06;;;;;;;11.60;4.00;;;;;;;17.80;52.02;100805.98;117335;1186;21899;-62
2021/10/21 07:40:35;;;;;;;7.40;3.80;;;;;;;17.89;51.95;100806.76;117382;1185;21861;-62
2021/10/21 07:43:03;;;;;;;10.40;3.80;;;;;;;17.94;51.97;100798.73;117373;1183;23547;-61
2021/10/21 07:45:33;;;;;;;7.40;3.80;;;;;;;18.02;51.89;100808.45;117348;1186;23477;-62
2021/10/21 07:48:02;;;;;;;6.50;4.00;;;;;;;18.12;51.93;100798.85;117357;1180;21863;-63
2021/10/21 07:50:30;;;;;;;8.20;4.10;;;;;;;18.27;51.92;100791.02;117401;1186;22651;-64
2021/10/21 07:53:01;;;;;;;11.10;3.90;;;;;;;18.39;51.86;100792.83;117333;1176;21858;-60
2021/10/21 07:55:34;;;;;;;8.20;3.60;;;;;;;18.46;51.63;100786.73;117398;1185;22918;-61
2021/10/21 07:58:04;;;;;;;10.40;3.80;;;;;;;18.52;51.75;100789.35;117364;1183;22837;-60
2021/10/21 08:00:33;;;;;;;8.70;4.20;;;;;;;18.58;51.64;100783.40;117494;1183;22941;-61
2021/10/21 08:03:01;;;;;;;7.40;3.50;;;;;;;18.67;51.63;100779.87;117443;1182;21863;-61
2021/10/21 08:05:33;;;;;;;8.30;3.80;;;;;;;18.75;51.65;100775.83;117420;1183;22984;-60
2021/10/21 08:08:04;;;;;;;6.30;3.90;;;;;;;18.82;51.59;100770.38;117436;1185;23461;-59
2021/10/21 08:10:33;;;;;;;11.60;4.40;;;;;;;18.84;51.63;100766.20;117465;1185;21869;-59
2021/10/21 08:13:03;;;;;;;8.60;3.80;;;;;;;18.95;51.47;100768.11;117398;1183;23442;-60
2021/10/21 08:15:32;;;;;;;7.00;3.90;;;;;;;19.02;51.61;100764.98;117484;1176;21858;-58
2021/10/21 08:18:00;;;;;;;9.70;4.30;;;;;;;19.10;51.65;100759.50;117403;1186;23580;-60
2021/10/21 08:20:29;;;;;;;7.90;4.00;;;;;;;19.21;51.56;100767.59;117504;1186;23479;-60
2021/10/21 08:23:01;;;;;;;8.40;3.70;;;;;;;19.23;51.58;100761.58;117333;1184;23444;-59
2021/10/21 08:25:29;;;;;;;6.30;3.50;;;;;;;19.27;51.56;100751.84;117422;1185;22648;-59
2021/10/21 08:27:57;;;;;;;11.00;3.90;;;;;;;19.36;51.58;100762.67;117478;1179;21985;-61
2021/10/21 08:30:26;;;;;;;9.60;3.40;;;;;;;19.41;51.65;100755.18;117414;1183;21858;-61
2021/10/21 08:32:57;;;;;;;6.60;4.00;;;;;;;19.45;51.59;100747.69;117476;1183;24160;-60
2021/10/21 08:35:28;;;;;;;7.10;3.60;;;;;;;19.53;51.59;100758.02;117429;1183;21865;-61
2021/10/21 08:38:00;;;;;;;9.80;3.70;;;;;;;19.61;51.54;100748.05;117391;1185;23445;-60
2021/10/21 08:40:31;;;;;;;11.90;3.80;;;;;;;19.63;51.40;100751.38;117397;1182;22926;-59
2021/10/21 08:43:03;;;;;;;5.40;3.70;;;;;;;19.65;51.44;100736.88;117390;1186;23468;-59
2021/10/21 08:45:31;;;;;;;7.20;3.30;;;;;;;19.72;51.47;100732.07;117376;1185;21858;-60
2021/10/21 08:48:04;;;;;;;11.80;3.80;;;;;;;19.82;51.52;100740.03;117349;1183;23544;-59
2021/10/21 08:50:33;;;;;;;6.70;3.40;;;;;;;19.91;51.37;100737.85;117414;1184;21890;-60
2021/10/21 08:53:02;;;;;;;8.40;3.80;;;;;;;19.96;51.36;100733.38;117345;1185;21863;-59
2021/10/21 08:55:31;;;;;;;7.20;3.50;;;;;;;19.99;51.42;100730.56;117406;1186;21895;-61
2021/10/21 08:58:01;;;;;;;9.60;3.80;;;;;;;20.07;51.45;100727.88;117434;1184;21865;-59
2021/10/21 09:00:31;;;;;;;9.30;3.60;;;;;;;20.16;51.47;100726.58;117350;1176;21860;-60
2021/10/21 09:03:02;;;;;;;7.00;3.20;;;;;;;20.23;51.37;100718.59;117377;1183;23569;-61
2021/10/21 09:05:57;;;;;;;6.90;3.50;;;;;;;20.28;51.39;100717.65;117332;1186;22961;-59
2021/10/21 09:08:21;;;;;;;5.70;3.00;;;;;;;20.35;51.30;100716.77;117384;1186;22011;-59
2021/10/21 09:10:56;;;;;;;6.80;3.60;;;;;;;20.42;51.25;100714.81;117357;1185;23033;-61
2021/10/21 09:13:45;;;;;;;5.50;3.00;;;;;;;20.46;51.19;100706.63;117326;1186;21864;-59
2021/10/21 09:16:31;;;;;;;6.30;3.50;;;;;;;20.44;51.23;100703.15;117312;1186;23445;-59
2021/10/21 09:19:08;;;;;;;7.90;3.70;;;;;;;20.47;51.26;100701.38;117360;1185;22317;-61
2021/10/21 09:21:56;;;;;;;6.20;3.00;;;;;;;20.51;51.18;100691.93;117336;1182;21858;-60
2021/10/21 09:24:29;;;;;;;10.30;3.80;;;;;;;20.57;51.19;100682.36;117443;1186;23560;-59
2021/10/21 09:27:10;;;;;;;8.00;3.80;;;;;;;20.72;51.22;100686.98;117350;1185;21857;-59
2021/10/21 09:29:45;;;;;;;9.70;3.80;;;;;;;20.83;51.11;100681.99;117343;1183;22908;-59
2021/10/21 09:32:21;;;;;;;5.70;3.40;;;;;;;20.86;51.04;100679.73;117358;1186;22730;-60
2021/10/21 09:34:54;;;;;;;9.60;3.70;;;;;;;20.87;50.95;100674.34;117400;1185;22311;-59
2021/10/21 09:37:36;;;;;;;6.60;3.50;;;;;;;20.91;50.92;100671.80;117457;1182;22988;-59
2021/10/21 09:40:13;;;;;;;9.90;3.80;;;;;;;20.95;50.91;100661.23;117422;1185;21985;-61
2021/10/21 09:42:43;;;;;;;8.90;3.70;;;;;;;21.00;50.77;100660.83;117551;1183;22948;-61
2021/10/21 09:45:16;;;;;;;6.80;3.50;;;;;;;21.00;50.74;100665.45;117485;1185;21866;-60
2021/10/21 09:47:58;;;;;;;8.70;4.00;;;;;;;20.94;50.77;100656.84;117528;1184;23011;-59
2021/10/21 09:50:55;;;;;;;7.60;3.70;;;;;;;20.94;50.84;100653.81;117538;1182;21858;-61
2021/10/21 09:53:31;;;;;;;7.50;4.30;;;;;;;20.98;50.85;100649.85;117343;1186;21854;-61
2021/10/21 09:56:03;;;;;;;8.20;4.50;;;;;;;21.03;50.90;100647.98;117473;1179;21857;-59
2021/10/21 09:58:39;;;;;;;10.10;3.50;;;;;;;21.09;50.87;100646.62;117394;1186;22630;-60
2021/10/21 10:01:11;;;;;;;11.70;3.90;;;;;;;21.09;50.83;100634.28;117498;1185;21860;-62
2021/10/21 10:03:44;;;;;;;10.80;3.70;;;;;;;21.10;50.81;100627.83;117332;1182;22916;-59
2021/10/21 10:06:16;;;;;;;8.10;3.60;;;;;;;21.13;50.79;100625.70;117409;1183;23436;-59
2021/10/21 10:08:45;;;;;;;12.60;3.80;;;;;;;21.24;50.82;100619.05;117411;1183;21913;-60
2021/10/21 10:11:19;;;;;;;9.30;3.50;;;;;;;21.38;50.77;100617.81;117387;1185;23456;-60
2021/10/21 10:14:08;;;;;;;5.70;3.20;;;;;;;21.44;50.67;100610.86;117406;1186;24221;-60
2021/10/21 10:16:54;;;;;;;7.70;3.00;;;;;;;21.41;50.56;100603.89;117434;1182;23845;-59
2021/10/21 10:19:23;;;;;;;6.10;2.80;;;;;;;21.43;50.34;100597.55;117555;1182;22905;-59
2021/10/21 10:21:52;;;;;;;5.90;3.10;;;;;;;21.42;50.33;100591.00;117420;1186;21848;-59
2021/10/21 10:24:27;;;;;;;10.80;3.30;;;;;;;21.40;50.62;100582.34;117519;1183;23478;-58
2021/10/21 10:26:57;;;;;;;9.60;3.70;;;;;;;21.48;50.43;100578.36;117555;1182;21848;-60
2021/10/21 10:29:31;;;;;;;17.30;3.90;;;;;;;21.49;50.11;100573.82;117338;1185;21909;-58
2021/10/21 10:32:00;;;;;;;10.90;3.60;;;;;;;21.49;50.12;100572.41;117480;1185;23553;-58
2021/10/21 10:34:33;;;;;;;;;;;;;;;21.44;50.18;100565.35;117465;1182;22913;-56
2021/10/21 10:37:16;;;;;;;7.00;3.00;;;;;;;21.37;50.35;100558.93;117521;1183;21928;-59
2021/10/21 10:39:48;;;;;;;6.60;3.30;;;;;;;21.36;50.38;100556.33;117514;1183;21953;-60
2021/10/21 10:42:28;;;;;;;7.70;3.30;;;;;;;21.36;50.17;100554.70;117482;1183;21858;-59
2021/10/21 10:45:00;;;;;;;6.90;3.00;;;;;;;21.32;50.33;100545.48;117390;1179;23569;-59
2021/10/21 10:47:38;;;;;;;10.90;3.60;;;;;;;21.35;50.38;100548.36;117481;1182;23469;-60
2021/10/21 10:50:07;;;;;;;11.20;3.50;;;;;;;21.37;50.33;100546.48;117494;1185;21854;-60
2021/10/21 10:52:46;;;;;;;12.00;3.50;;;;;;;21.35;50.31;100538.55;117343;1183;21877;-59
2021/10/21 10:55:18;;;;;;;8.80;3.90;;;;;;;21.34;50.48;100533.95;117432;1183;21878;-59
2021/10/21 10:57:47;;;;;;;9.30;3.10;;;;;;;21.38;50.51;100533.52;117353;1182;23644;-58
2021/10/21 11:00:48;;;;;;;10.00;3.40;;;;;;;21.39;50.41;100533.13;117469;1185;22906;-58
2021/10/21 11:03:36;;;;;;;12.80;4.00;;;;;;;21.38;50.25;100524.98;117516;1183;21853;-60
2021/10/21 11:06:06;;;;;;;7.70;3.10;;;;;;;21.34;50.26;100523.77;117384;1185;21868;-60
2021/10/21 11:08:50;;;;;;;10.50;3.00;;;;;;;21.27;50.30;100514.49;117422;1183;21845;-60
2021/10/21 11:11:40;;;;;;;5.50;2.90;;;;;;;21.23;50.31;100514.58;117360;1185;21855;-60
2021/10/21 11:14:33;;;;;;;12.40;3.30;;;;;;;21.22;50.36;100509.61;117425;1183;23564;-57
2021/10/21 11:17:01;;;;;;;8.80;3.40;;;;;;;21.24;50.30;100508.45;117412;1183;21858;-58
2021/10/21 11:19:42;;;;;;;10.00;5.60;;;;;;;21.23;50.28;100502.21;117438;1183;21862;-58
2021/10/21 11:22:19;;;;;;;;;;;;;;;21.27;50.34;100495.27;117443;1183;21842;-58
2021/10/21 11:24:52;;;;;;;16.10;6.70;;;;;;;21.30;50.30;100490.96;117465;1185;22035;-59
2021/10/21 11:27:25;;;;;;;9.90;3.50;;;;;;;21.31;50.17;100490.02;117515;1183;21863;-59
2021/10/21 11:29:53;;;;;;;8.70;2.80;;;;;;;21.28;50.20;100485.92;117495;1183;22905;-60